Time;durP1;ratioP1;P1;durP2;ratioP2;P2;SDS_P1;SDS_P2;PMS_P1;PMS_P2;Temp;Humidity;BMP_temperature;BMP_pressure;BME280_temperature;BME280_humidity;BME280_pressure;Samples;Min_cycle;Max_cycle;Signal;HPM_P1;HPM_P2
2022/03/23 00:00:22;;;;;;;2.57;1.80;;;5.10;96.60;;;;;;6121243;23;20767;-68
2022/03/23 00:02:49;;;;;;;4.33;2.23;;;5.00;97.00;;;;;;6120473;23;20407;-69
2022/03/23 00:05:17;;;;;;;1.77;1.30;;;5.00;97.10;;;;;;6120861;23;20426;-69
2022/03/23 00:07:44;;;;;;;2.50;1.67;;;4.90;97.60;;;;;;6120249;23;20429;-68
2022/03/23 00:10:12;;;;;;;2.03;1.90;;;4.90;98.00;;;;;;6120368;23;20410;-68
2022/03/23 00:12:39;;;;;;;2.23;2.00;;;4.90;98.00;;;;;;6120767;23;20404;-69
2022/03/23 00:15:08;;;;;;;9.53;2.40;;;4.90;97.70;;;;;;6120185;23;20405;-68
2022/03/23 00:17:35;;;;;;;2.03;1.83;;;4.90;97.40;;;;;;6120173;23;20466;-68
2022/03/23 00:20:04;;;;;;;1.30;1.30;;;4.90;97.50;;;;;;6120684;23;20423;-68
2022/03/23 00:22:31;;;;;;;1.23;1.20;;;4.60;98.00;;;;;;6120232;23;20918;-68
2022/03/23 00:24:58;;;;;;;1.50;1.50;;;4.40;98.00;;;;;;6120892;23;20475;-69
2022/03/23 00:27:25;;;;;;;2.73;2.00;;;4.30;98.00;;;;;;6121561;23;20478;-68
2022/03/23 00:29:52;;;;;;;1.70;1.63;;;4.30;98.00;;;;;;6121823;23;20510;-68
2022/03/23 00:32:21;;;;;;;2.73;2.10;;;4.50;98.00;;;;;;6121935;23;20414;-69
2022/03/23 00:34:47;;;;;;;2.47;1.47;;;4.50;98.00;;;;;;6121505;23;20415;-69
2022/03/23 00:37:15;;;;;;;8.30;2.17;;;4.60;98.00;;;;;;6121832;23;20446;-69
2022/03/23 00:39:45;;;;;;;5.43;3.20;;;4.70;98.00;;;;;;6096283;23;20416;-68
2022/03/23 00:42:12;;;;;;;2.90;2.73;;;4.60;98.00;;;;;;6121969;23;20411;-68
2022/03/23 00:44:39;;;;;;;2.57;2.37;;;4.40;98.00;;;;;;6121814;23;20481;-68
2022/03/23 00:47:06;;;;;;;1.67;1.50;;;4.40;98.00;;;;;;6122110;23;20403;-68
2022/03/23 00:49:38;;;;;;;3.43;2.60;;;4.50;98.00;;;;;;6121471;23;20490;-68
2022/03/23 00:52:06;;;;;;;4.13;1.93;;;4.60;98.00;;;;;;6122022;23;20415;-68
2022/03/23 00:54:35;;;;;;;1.50;1.47;;;4.70;98.00;;;;;;6121989;23;21034;-68
2022/03/23 00:57:02;;;;;;;1.70;1.57;;;4.70;98.00;;;;;;6121227;23;20945;-68
2022/03/23 00:59:29;;;;;;;1.30;1.30;;;4.50;98.00;;;;;;6121372;23;20870;-68
2022/03/23 01:01:56;;;;;;;3.00;2.43;;;4.30;98.00;;;;;;6121006;23;20482;-68
2022/03/23 01:04:24;;;;;;;1.83;1.73;;;4.40;98.00;;;;;;6121511;23;20406;-69
2022/03/23 01:06:53;;;;;;;1.47;1.37;;;4.50;98.00;;;;;;6121639;23;20402;-68
2022/03/23 01:09:22;;;;;;;1.87;1.37;;;4.50;98.00;;;;;;6121650;23;20408;-69
2022/03/23 01:11:50;;;;;;;1.70;1.60;;;4.40;98.00;;;;;;6121707;23;20776;-68
2022/03/23 01:14:17;;;;;;;2.03;1.93;;;4.20;98.00;;;;;;6121250;23;20886;-68
2022/03/23 01:16:44;;;;;;;1.67;1.20;;;4.10;98.00;;;;;;6121293;23;20490;-69
2022/03/23 01:19:13;;;;;;;1.30;1.30;;;4.00;98.00;;;;;;6121580;23;20400;-68
2022/03/23 01:21:40;;;;;;;3.37;2.20;;;4.00;98.00;;;;;;6121384;23;20420;-69
2022/03/23 01:24:09;;;;;;;3.50;1.67;;;3.90;98.00;;;;;;6121583;23;20903;-68
2022/03/23 01:26:37;;;;;;;4.10;1.60;;;4.00;98.00;;;;;;6121672;23;20424;-69
2022/03/23 01:29:05;;;;;;;2.67;2.47;;;4.00;98.00;;;;;;6121263;23;20427;-68
2022/03/23 01:31:32;;;;;;;2.13;1.97;;;3.90;98.00;;;;;;6121810;23;20767;-68
2022/03/23 01:34:00;;;;;;;3.73;2.73;;;3.60;98.00;;;;;;6121671;23;20428;-68
2022/03/23 01:36:27;;;;;;;2.00;1.40;;;3.40;98.00;;;;;;6121473;23;20453;-68
2022/03/23 01:38:55;;;;;;;2.60;1.80;;;3.50;98.00;;;;;;6121775;23;20447;-68
2022/03/23 01:41:24;;;;;;;1.70;1.47;;;3.60;98.00;;;;;;6121896;23;20415;-68
2022/03/23 01:43:51;;;;;;;2.60;1.23;;;3.40;98.00;;;;;;6121947;23;20483;-68
2022/03/23 01:46:19;;;;;;;1.47;1.33;;;3.30;98.00;;;;;;6121930;23;20396;-68
2022/03/23 01:48:46;;;;;;;1.80;1.43;;;3.30;98.00;;;;;;6119939;23;20431;-68
2022/03/23 01:51:15;;;;;;;1.33;1.30;;;3.50;98.00;;;;;;6120084;23;20420;-68
2022/03/23 01:53:44;;;;;;;1.70;1.60;;;3.60;98.00;;;;;;6119267;23;20419;-68
2022/03/23 01:56:12;;;;;;;4.40;2.10;;;3.60;98.00;;;;;;6094572;23;20454;-68
2022/03/23 01:58:41;;;;;;;6.30;2.00;;;3.70;98.00;;;;;;6119716;23;20935;-68
2022/03/23 02:01:08;;;;;;;1.40;1.40;;;3.70;98.00;;;;;;6119587;23;21054;-68
2022/03/23 02:03:35;;;;;;;2.37;2.17;;;3.80;98.00;;;;;;6119640;23;20420;-68
2022/03/23 02:06:04;;;;;;;2.00;1.60;;;3.70;98.00;;;;;;6119805;23;20399;-68
2022/03/23 02:08:31;;;;;;;3.93;2.50;;;3.60;98.00;;;;;;6094280;23;20472;-68
2022/03/23 02:10:58;;;;;;;1.73;1.63;;;3.20;98.00;;;;;;6094280;23;20469;-68
2022/03/23 02:13:25;;;;;;;1.67;1.63;;;3.30;98.00;;;;;;6119567;23;20424;-68
2022/03/23 02:15:56;;;;;;;1.33;1.30;;;3.10;98.00;;;;;;6119584;23;20915;-68
2022/03/23 02:18:24;;;;;;;2.33;1.57;;;3.00;98.00;;;;;;6119577;23;20411;-68
2022/03/23 02:20:52;;;;;;;1.30;1.20;;;3.20;98.00;;;;;;6094543;23;20412;-68
2022/03/23 02:23:21;;;;;;;1.90;1.87;;;3.10;98.00;;;;;;6118844;23;20417;-68
2022/03/23 02:25:49;;;;;;;2.50;1.97;;;;;;;;;;6119559;23;20481;-68
2022/03/23 02:28:17;;;;;;;1.50;1.50;;;3.00;98.00;;;;;;6119814;23;20419;-68
2022/03/23 02:30:44;;;;;;;1.60;1.50;;;3.00;98.00;;;;;;6119354;23;20427;-68
2022/03/23 02:33:11;;;;;;;1.70;1.57;;;2.80;98.00;;;;;;6119994;23;20422;-69
2022/03/23 02:35:38;;;;;;;4.53;2.13;;;2.80;98.00;;;;;;6119580;23;20739;-68
2022/03/23 02:38:05;;;;;;;1.20;1.10;;;2.90;98.00;;;;;;6094514;23;20512;-68
2022/03/23 02:40:35;;;;;;;1.77;1.67;;;2.80;98.00;;;;;;6094070;23;20445;-68
2022/03/23 02:43:02;;;;;;;2.03;1.43;;;2.90;98.00;;;;;;6119469;23;20489;-68
2022/03/23 02:45:29;;;;;;;2.70;2.37;;;2.70;98.00;;;;;;6118837;23;20450;-68
2022/03/23 02:47:58;;;;;;;2.13;1.20;;;2.60;98.00;;;;;;6118548;23;20421;-68
2022/03/23 02:50:26;;;;;;;1.97;1.50;;;2.60;98.00;;;;;;5972650;23;3505337;-68
2022/03/23 03:04:08;;;;;;;1.53;1.53;;;2.60;98.00;;;;;;6121335;23;20867;-68
2022/03/23 03:06:35;;;;;;;2.53;1.30;;;2.50;98.00;;;;;;6120913;23;20417;-68
2022/03/23 03:09:10;;;;;;;2.07;1.43;;;2.50;98.00;;;;;;6120995;23;20456;-68
2022/03/23 03:11:38;;;;;;;1.50;1.40;;;2.50;98.00;;;;;;6097320;23;20405;-68
2022/03/23 03:14:05;;;;;;;3.47;2.10;;;2.40;98.00;;;;;;6121194;23;20402;-68
2022/03/23 03:16:32;;;;;;;1.70;1.60;;;2.30;98.00;;;;;;6121228;23;20430;-68
2022/03/23 03:18:59;;;;;;;1.60;1.33;;;2.40;98.00;;;;;;6121320;23;20702;-68
2022/03/23 03:21:26;;;;;;;1.67;1.60;;;2.50;98.00;;;;;;6121564;23;20472;-68
2022/03/23 03:23:54;;;;;;;1.73;1.67;;;2.40;98.00;;;;;;6121066;23;20896;-68
2022/03/23 03:26:21;;;;;;;1.20;1.10;;;2.30;98.00;;;;;;6121478;23;20398;-68
2022/03/23 03:28:50;;;;;;;1.80;1.67;;;2.40;98.00;;;;;;6120929;23;20410;-68
2022/03/23 03:31:19;;;;;;;3.17;2.43;;;2.30;98.00;;;;;;6120776;23;20420;-68
2022/03/23 03:33:46;;;;;;;1.70;1.60;;;2.30;98.00;;;;;;6120732;23;20986;-68
2022/03/23 03:36:15;;;;;;;1.97;1.90;;;2.20;98.00;;;;;;6120788;23;20447;-68
2022/03/23 03:38:43;;;;;;;1.90;1.67;;;2.30;98.00;;;;;;6120973;23;20960;-68
2022/03/23 03:41:10;;;;;;;2.00;1.80;;;2.30;98.00;;;;;;6120834;23;20429;-68
2022/03/23 03:43:39;;;;;;;1.73;1.63;;;2.10;98.00;;;;;;6121062;23;20798;-68
2022/03/23 03:46:10;;;;;;;1.30;1.30;;;2.20;98.00;;;;;;6120488;23;20417;-68
2022/03/23 03:48:37;;;;;;;3.57;2.80;;;2.10;98.00;;;;;;6120815;23;20460;-68
2022/03/23 03:51:06;;;;;;;1.20;1.00;;;2.10;98.00;;;;;;6120688;23;20430;-68
2022/03/23 03:53:33;;;;;;;1.20;1.10;;;2.30;98.00;;;;;;6120923;23;20413;-68
2022/03/23 03:56:00;;;;;;;1.97;1.90;;;2.30;98.00;;;;;;6120782;23;20417;-68
2022/03/23 03:58:28;;;;;;;2.33;1.60;;;2.30;98.00;;;;;;6120580;23;20453;-68
2022/03/23 04:00:55;;;;;;;2.00;1.40;;;2.20;98.00;;;;;;6120748;23;20417;-68
2022/03/23 04:03:23;;;;;;;1.87;1.57;;;;;;;;;;6121118;23;20723;-68
2022/03/23 04:05:51;;;;;;;1.40;1.30;;;;;;;;;;6120579;23;20457;-68
2022/03/23 04:08:18;;;;;;;1.60;1.43;;;2.10;98.00;;;;;;6120871;23;20394;-68
2022/03/23 04:10:45;;;;;;;1.50;1.37;;;;;;;;;;6121084;23;20480;-68
2022/03/23 04:13:12;;;;;;;1.93;1.70;;;2.00;98.00;;;;;;6121139;23;20449;-68
2022/03/23 04:15:39;;;;;;;2.03;1.40;;;;;;;;;;6120875;23;20407;-68
2022/03/23 04:18:07;;;;;;;1.20;1.10;;;2.10;98.00;;;;;;6120767;23;20794;-68
2022/03/23 04:20:36;;;;;;;3.70;2.60;;;2.10;98.00;;;;;;6120624;23;20418;-68
2022/03/23 04:23:03;;;;;;;1.20;1.13;;;2.00;98.00;;;;;;6120408;23;20429;-68
2022/03/23 04:25:31;;;;;;;1.83;1.70;;;1.90;98.00;;;;;;6120648;23;20498;-68
2022/03/23 04:27:59;;;;;;;3.73;2.23;;;1.90;98.00;;;;;;6120562;23;20418;-68
2022/03/23 04:30:30;;;;;;;1.73;1.63;;;1.80;98.00;;;;;;6120631;23;20506;-68
2022/03/23 04:32:57;;;;;;;1.50;1.50;;;1.80;98.00;;;;;;6120662;23;20697;-68
2022/03/23 04:35:26;;;;;;;1.87;1.47;;;1.90;98.00;;;;;;6120197;23;20877;-68
2022/03/23 04:37:55;;;;;;;1.20;1.17;;;;;;;;;;6120395;23;20449;-68
2022/03/23 04:40:22;;;;;;;1.80;1.70;;;1.90;98.00;;;;;;6120457;23;20457;-68
2022/03/23 04:42:50;;;;;;;1.80;1.30;;;1.80;98.00;;;;;;6120195;23;20420;-68
2022/03/23 04:45:18;;;;;;;1.77;1.67;;;;;;;;;;6120112;23;20424;-68
2022/03/23 04:47:45;;;;;;;1.20;1.00;;;;;;;;;;6120522;23;20483;-68
2022/03/23 04:50:13;;;;;;;2.03;1.80;;;;;;;;;;6226227;23;20483;-68
2022/03/23 04:52:41;;;;;;;2.17;1.33;;;;;;;;;;6244137;23;20783;-68
2022/03/23 04:55:11;;;;;;;2.43;2.23;;;;;;;;;;6243600;23;20812;-68
2022/03/23 04:57:39;;;;;;;3.00;2.47;;;1.80;98.00;;;;;;6243422;23;20491;-68
2022/03/23 05:00:10;;;;;;;1.70;1.67;;;;;;;;;;6242436;23;20419;-68
2022/03/23 05:02:38;;;;;;;1.40;1.30;;;;;;;;;;6244588;23;20393;-68
2022/03/23 05:05:05;;;;;;;1.30;1.17;;;;;;;;;;6244701;23;20718;-68
2022/03/23 05:07:32;;;;;;;2.90;2.40;;;1.70;98.00;;;;;;6244553;23;20911;-68
2022/03/23 05:10:00;;;;;;;2.07;1.80;;;;;;;;;;6244645;22;20425;-68
2022/03/23 05:12:28;;;;;;;1.20;1.20;;;1.90;98.00;;;;;;6245416;23;20449;-68
2022/03/23 05:14:55;;;;;;;2.23;2.00;;;2.00;98.00;;;;;;6246589;22;20401;-68
2022/03/23 05:17:22;;;;;;;1.37;1.33;;;1.90;98.00;;;;;;6246204;22;20479;-68
2022/03/23 05:19:49;;;;;;;1.30;1.27;;;1.90;98.00;;;;;;6246349;22;20410;-68
2022/03/23 05:22:16;;;;;;;1.30;1.30;;;2.10;98.00;;;;;;6244334;23;20397;-68
2022/03/23 05:24:44;;;;;;;2.27;1.97;;;1.90;98.00;;;;;;6246232;22;20735;-68
2022/03/23 05:27:11;;;;;;;2.37;2.17;;;1.90;98.00;;;;;;6245811;22;20445;-68
2022/03/23 05:29:43;;;;;;;1.77;1.70;;;1.70;98.00;;;;;;6246198;22;20398;-68
2022/03/23 05:32:16;;;;;;;2.20;1.77;;;1.80;98.00;;;;;;6246281;22;20452;-68
2022/03/23 05:34:43;;;;;;;4.50;3.13;;;1.70;98.00;;;;;;6245592;22;20398;-68
2022/03/23 05:37:11;;;;;;;3.03;2.70;;;1.80;98.00;;;;;;6245725;22;20469;-68
2022/03/23 05:39:38;;;;;;;1.50;1.30;;;1.70;98.00;;;;;;6246007;22;20505;-68
2022/03/23 05:42:05;;;;;;;1.83;1.67;;;1.80;98.00;;;;;;6246324;22;20440;-68
2022/03/23 05:44:32;;;;;;;3.83;1.83;;;2.00;98.00;;;;;;6245675;22;20472;-68
2022/03/23 05:47:00;;;;;;;1.73;1.63;;;2.00;98.00;;;;;;6245812;22;20420;-68
2022/03/23 05:49:27;;;;;;;1.30;1.30;;;2.10;98.00;;;;;;6172819;22;20426;-68
2022/03/23 05:51:54;;;;;;;2.23;1.57;;;2.10;98.00;;;;;;6121564;23;20690;-70
2022/03/23 05:54:22;;;;;;;2.80;1.87;;;2.20;98.00;;;;;;6095294;23;20421;-70
2022/03/23 05:56:51;;;;;;;2.40;1.97;;;2.20;98.00;;;;;;6121756;23;20418;-68
2022/03/23 05:59:18;;;;;;;1.70;1.60;;;2.20;98.00;;;;;;6121310;23;20467;-68
2022/03/23 06:01:46;;;;;;;2.23;1.70;;;2.10;98.00;;;;;;6121999;23;20482;-68
2022/03/23 06:04:14;;;;;;;1.30;1.30;;;2.10;98.00;;;;;;6121820;23;20480;-68
2022/03/23 06:06:41;;;;;;;1.20;1.20;;;2.10;98.00;;;;;;6121283;23;20480;-68
2022/03/23 06:09:08;;;;;;;1.97;1.90;;;2.10;98.00;;;;;;6121617;23;20732;-68
2022/03/23 06:11:35;;;;;;;2.03;1.63;;;2.20;98.00;;;;;;6121241;23;20414;-68
2022/03/23 06:14:02;;;;;;;1.77;1.43;;;2.10;98.00;;;;;;6121498;23;20401;-68
2022/03/23 06:16:29;;;;;;;1.70;1.47;;;1.90;98.00;;;;;;6121538;23;20731;-68
2022/03/23 06:18:56;;;;;;;1.50;1.50;;;1.90;98.00;;;;;;6121504;23;20802;-68
2022/03/23 06:21:24;;;;;;;1.20;1.00;;;2.00;98.00;;;;;;6120975;23;20942;-68
2022/03/23 06:23:52;;;;;;;1.60;1.10;;;1.90;98.00;;;;;;6120373;23;20422;-68
2022/03/23 06:26:19;;;;;;;2.43;1.83;;;1.80;98.00;;;;;;6121281;23;20406;-68
2022/03/23 06:28:45;;;;;;;2.60;2.20;;;1.80;98.00;;;;;;6121294;23;20477;-68
2022/03/23 06:31:12;;;;;;;1.47;1.40;;;1.90;98.00;;;;;;6121089;23;20456;-68
2022/03/23 06:33:39;;;;;;;1.20;1.20;;;2.10;98.00;;;;;;6121058;23;21003;-68
2022/03/23 06:36:07;;;;;;;1.80;1.53;;;2.20;98.00;;;;;;6120945;23;20422;-68
2022/03/23 06:38:35;;;;;;;1.60;1.50;;;2.20;98.00;;;;;;6121025;23;20441;-68
2022/03/23 06:41:03;;;;;;;1.63;1.53;;;2.10;98.00;;;;;;6121519;23;20402;-68
2022/03/23 06:43:30;;;;;;;5.23;2.57;;;2.20;98.00;;;;;;6121498;23;20480;-67
2022/03/23 06:45:57;;;;;;;1.80;1.57;;;2.30;98.00;;;;;;6121108;23;20406;-67
2022/03/23 06:48:24;;;;;;;1.73;1.50;;;2.50;98.00;;;;;;6121233;23;20430;-67
2022/03/23 06:50:51;;;;;;;2.73;2.40;;;2.60;98.00;;;;;;6121543;23;20405;-67
2022/03/23 06:53:18;;;;;;;2.00;1.93;;;2.80;98.00;;;;;;6121711;23;20893;-67
2022/03/23 06:55:47;;;;;;;2.37;2.03;;;2.90;98.00;;;;;;6096195;23;20418;-64
2022/03/23 06:58:14;;;;;;;2.03;1.77;;;2.90;98.00;;;;;;6121060;23;21141;-67
2022/03/23 07:00:41;;;;;;;1.70;1.40;;;3.00;98.00;;;;;;6095740;23;20488;-66
2022/03/23 07:03:10;;;;;;;1.80;1.40;;;3.10;98.00;;;;;;6121193;23;21023;-66
2022/03/23 07:05:37;;;;;;;2.70;2.60;;;3.20;98.00;;;;;;6121036;23;20496;-66
2022/03/23 07:10:51;;;;;;;1.73;1.63;;;3.30;98.00;;;;;;6121046;23;20777;-67
2022/03/23 07:13:18;;;;;;;1.90;1.83;;;3.40;98.00;;;;;;6121336;23;20433;-66
2022/03/23 07:15:46;;;;;;;2.17;1.40;;;;;;;;;;6120983;23;20423;-66
2022/03/23 07:18:14;;;;;;;1.87;1.77;;;;;;;;;;6121242;23;20485;-66
2022/03/23 07:20:41;;;;;;;2.53;2.37;;;3.70;98.00;;;;;;6121003;23;20721;-66
2022/03/23 07:23:08;;;;;;;3.97;2.50;;;3.70;98.00;;;;;;6121236;23;20434;-66
2022/03/23 07:25:35;;;;;;;1.43;1.40;;;3.90;98.00;;;;;;6121161;23;20412;-66
2022/03/23 07:28:04;;;;;;;1.30;1.30;;;4.00;98.00;;;;;;6121307;23;20423;-66
2022/03/23 07:30:33;;;;;;;1.87;1.87;;;4.00;98.00;;;;;;6121131;23;20408;-66
2022/03/23 07:33:01;;;;;;;3.20;2.43;;;4.00;98.00;;;;;;6121359;23;20404;-66
2022/03/23 07:35:28;;;;;;;2.60;1.77;;;4.20;98.00;;;;;;6120782;23;20412;-66
2022/03/23 07:37:55;;;;;;;2.03;1.30;;;4.30;98.00;;;;;;6121201;23;20439;-66
2022/03/23 07:40:22;;;;;;;2.60;2.03;;;4.50;98.00;;;;;;6121279;23;20472;-66
2022/03/23 07:42:49;;;;;;;3.30;1.63;;;4.70;98.00;;;;;;6121262;23;20447;-66
2022/03/23 07:45:17;;;;;;;2.23;2.03;;;5.00;98.00;;;;;;6121163;23;20461;-66
2022/03/23 07:47:45;;;;;;;1.53;1.53;;;5.30;98.00;;;;;;6120941;23;20399;-66
2022/03/23 07:50:12;;;;;;;9.40;3.17;;;5.50;98.00;;;;;;6120444;23;21105;-66
2022/03/23 07:52:39;;;;;;;1.97;1.63;;;5.70;98.00;;;;;;6130571;23;20516;-66
2022/03/23 07:55:06;;;;;;;2.40;2.07;;;5.90;98.00;;;;;;6120795;23;20415;-66
2022/03/23 07:57:34;;;;;;;2.13;1.97;;;6.10;98.00;;;;;;6120497;23;20462;-66
2022/03/23 08:00:00;;;;;;;1.53;1.53;;;6.00;98.00;;;;;;6120809;23;20417;-66
2022/03/23 08:02:29;;;;;;;1.60;1.50;;;6.00;98.00;;;;;;6120529;23;20419;-66
2022/03/23 08:04:56;;;;;;;2.40;1.87;;;6.10;98.00;;;;;;6093091;23;20918;-67
2022/03/23 08:07:23;;;;;;;2.67;2.20;;;6.20;98.00;;;;;;6119887;23;20735;-67
2022/03/23 08:09:51;;;;;;;2.53;2.33;;;6.40;98.00;;;;;;6119912;23;20401;-66
2022/03/23 08:12:18;;;;;;;1.30;1.27;;;6.50;98.00;;;;;;6118816;23;20484;-66
2022/03/23 08:14:46;;;;;;;5.73;2.40;;;6.60;98.00;;;;;;6119669;23;20402;-66
2022/03/23 08:17:13;;;;;;;1.70;1.63;;;6.90;98.00;;;;;;6093814;23;20396;-65
2022/03/23 08:19:41;;;;;;;2.90;2.00;;;7.10;98.00;;;;;;6120649;23;20474;-66
2022/03/23 08:22:09;;;;;;;2.33;1.83;;;7.30;97.60;;;;;;6120096;23;20466;-66
2022/03/23 08:24:39;;;;;;;2.93;2.50;;;7.60;97.80;;;;;;6120403;23;20402;-66
2022/03/23 08:27:06;;;;;;;2.03;1.93;;;7.80;97.10;;;;;;6121036;23;20403;-66
2022/03/23 08:29:33;;;;;;;3.00;2.30;;;8.00;95.70;;;;;;6120440;23;20502;-66
2022/03/23 08:32:01;;;;;;;3.53;1.77;;;8.10;96.10;;;;;;6095297;23;20421;-66
2022/03/23 08:34:28;;;;;;;3.83;2.03;;;8.30;94.90;;;;;;6095138;23;20494;-66
2022/03/23 08:36:56;;;;;;;5.03;2.03;;;8.50;93.00;;;;;;6120863;23;20402;-66
2022/03/23 08:39:23;;;;;;;2.33;1.63;;;8.60;94.20;;;;;;6120536;23;20456;-66
2022/03/23 08:41:50;;;;;;;2.23;1.60;;;8.80;94.00;;;;;;6120338;23;20405;-66
2022/03/23 08:44:17;;;;;;;2.70;2.50;;;8.90;92.70;;;;;;6119920;23;20435;-66
2022/03/23 08:46:45;;;;;;;2.50;1.50;;;9.20;91.60;;;;;;6120613;23;20793;-66
2022/03/23 08:49:12;;;;;;;1.57;1.47;;;9.40;91.10;;;;;;6121068;23;20797;-66
2022/03/23 08:51:39;;;;;;;2.30;1.97;;;9.70;89.90;;;;;;6121313;23;20417;-66
2022/03/23 08:54:07;;;;;;;1.70;1.30;;;9.80;89.60;;;;;;6121506;23;20459;-66
2022/03/23 08:56:35;;;;;;;2.00;1.87;;;10.00;89.20;;;;;;6121566;23;20412;-66
2022/03/23 08:59:01;;;;;;;5.67;2.53;;;10.20;89.00;;;;;;6121737;23;20951;-66
2022/03/23 09:01:28;;;;;;;3.40;2.17;;;10.40;88.30;;;;;;6121552;23;20418;-66
2022/03/23 09:04:00;;;;;;;4.03;2.33;;;10.60;87.50;;;;;;6121827;23;20418;-67
2022/03/23 09:06:27;;;;;;;4.50;2.10;;;10.70;87.30;;;;;;6095936;23;20404;-66
2022/03/23 09:08:54;;;;;;;2.20;2.00;;;11.00;87.20;;;;;;6121789;23;20748;-66
2022/03/23 09:11:23;;;;;;;2.70;2.07;;;11.20;84.50;;;;;;6121466;23;20422;-66
2022/03/23 09:13:50;;;;;;;5.33;3.20;;;11.40;85.80;;;;;;6121128;23;20417;-66
2022/03/23 09:16:17;;;;;;;3.40;1.67;;;11.50;84.90;;;;;;6121271;23;20474;-67
2022/03/23 09:18:44;;;;;;;2.47;1.90;;;11.70;85.60;;;;;;6096185;23;20448;-66
2022/03/23 09:21:12;;;;;;;2.93;2.77;;;12.10;85.00;;;;;;6121275;23;20878;-66
2022/03/23 09:23:40;;;;;;;2.80;2.17;;;12.20;83.90;;;;;;6121829;23;20465;-66
2022/03/23 09:26:09;;;;;;;3.37;2.03;;;12.40;84.00;;;;;;6096061;23;20424;-66
2022/03/23 09:28:40;;;;;;;3.93;3.00;;;12.60;81.50;;;;;;6121606;23;20423;-66
2022/03/23 09:31:07;;;;;;;2.03;1.80;;;12.70;80.00;;;;;;6096519;23;20922;-67
2022/03/23 09:33:44;;;;;;;2.93;2.70;;;12.90;79.40;;;;;;6121980;23;20426;-66
2022/03/23 09:37:47;;;;;;;5.53;3.00;;;13.10;79.70;;;;;;6121693;23;20819;-66
2022/03/23 09:39:14;;;;;;;3.20;3.00;;;13.30;77.70;;;;;;6102424;23;20473;-66
2022/03/23 09:41:41;;;;;;;6.93;2.33;;;13.50;77.90;;;;;;6121178;23;20848;-66
2022/03/23 09:44:09;;;;;;;2.53;2.40;;;13.70;77.20;;;;;;6121697;23;20758;-66
2022/03/23 09:46:36;;;;;;;6.97;3.57;;;14.00;76.20;;;;;;6121512;23;20403;-66
2022/03/23 09:49:04;;;;;;;4.10;2.83;;;14.10;74.60;;;;;;6121540;23;20432;-66
2022/03/23 09:51:33;;;;;;;2.90;2.43;;;14.20;75.10;;;;;;6121455;23;20434;-66
2022/03/23 09:54:02;;;;;;;6.20;3.40;;;14.30;73.30;;;;;;6121579;23;20402;-66
2022/03/23 09:56:28;;;;;;;2.43;2.33;;;14.50;75.70;;;;;;6121391;23;20402;-66
2022/03/23 09:58:56;;;;;;;4.00;2.90;;;14.80;73.60;;;;;;6121260;23;20479;-66
2022/03/23 10:02:12;;;;;;;5.07;3.63;;;15.00;72.10;;;;;;6121525;23;20405;-66
2022/03/23 10:05:27;;;;;;;3.57;2.53;;;15.40;72.70;;;;;;6121107;23;20825;-66
2022/03/23 10:08:04;;;;;;;5.17;3.30;;;15.70;70.40;;;;;;6120766;23;20419;-67
2022/03/23 10:11:13;;;;;;;3.27;2.57;;;15.90;69.70;;;;;;6120074;23;20515;-66
2022/03/23 10:14:18;;;;;;;6.60;3.53;;;16.20;69.40;;;;;;6121243;23;20420;-66
2022/03/23 10:17:25;;;;;;;2.33;2.13;;;16.50;69.30;;;;;;6120788;23;20412;-67
2022/03/23 10:19:52;;;;;;;5.97;2.50;;;17.10;80.40;;;;;;6121349;23;20936;-66
2022/03/23 10:22:20;;;;;;;4.70;2.70;;;17.80;67.80;;;;;;6119973;23;20475;-66
2022/03/23 10:24:48;;;;;;;4.90;2.93;;;17.90;64.80;;;;;;6093947;23;20459;-66
2022/03/23 10:27:17;;;;;;;5.10;3.90;;;18.00;65.80;;;;;;6120432;23;20477;-66
2022/03/23 10:29:47;;;;;;;4.90;3.27;;;18.20;64.60;;;;;;6119695;23;20410;-66
2022/03/23 10:32:15;;;;;;;5.33;3.07;;;18.30;63.30;;;;;;6120290;23;20413;-65
2022/03/23 10:34:46;;;;;;;4.87;2.87;;;18.40;64.30;;;;;;6120279;23;20447;-66
2022/03/23 10:37:16;;;;;;;7.70;3.00;;;18.50;64.00;;;;;;6120032;23;20411;-66
2022/03/23 10:39:43;;;;;;;7.23;2.97;;;18.70;64.80;;;;;;6119965;23;20538;-65
2022/03/23 10:42:15;;;;;;;7.90;3.53;;;18.80;61.80;;;;;;6120262;23;20512;-66
2022/03/23 10:44:44;;;;;;;6.93;3.53;;;19.00;61.80;;;;;;6119897;23;21127;-66
2022/03/23 10:47:25;;;;;;;5.27;2.80;;;19.10;61.00;;;;;;6094646;23;20445;-67
2022/03/23 10:49:54;;;;;;;4.27;2.87;;;19.30;60.90;;;;;;6117888;23;20437;-66
2022/03/23 10:52:22;;;;;;;5.87;2.60;;;19.40;60.30;;;;;;6119430;23;20736;-67
2022/03/23 10:54:56;;;;;;;4.80;2.93;;;19.50;59.50;;;;;;6118831;23;20441;-66
2022/03/23 10:57:49;;;;;;;4.13;2.33;;;19.60;60.40;;;;;;6119372;23;20417;-67
2022/03/23 11:00:17;;;;;;;6.97;3.40;;;19.70;60.70;;;;;;6119119;23;20433;-67
2022/03/23 11:02:53;;;;;;;7.87;3.03;;;20.00;59.00;;;;;;6119666;23;20413;-66
2022/03/23 11:05:35;;;;;;;4.57;2.73;;;20.10;58.20;;;;;;6119340;23;20401;-66
2022/03/23 11:08:09;;;;;;;4.03;2.50;;;20.40;56.60;;;;;;6118857;23;20428;-67
2022/03/23 11:16:07;;;;;;;4.93;3.30;;;20.80;57.10;;;;;;6129285;23;20420;-67
2022/03/23 11:18:34;;;;;;;3.30;1.83;;;20.80;55.60;;;;;;6119128;23;20425;-66
2022/03/23 11:21:04;;;;;;;3.90;2.77;;;21.00;56.40;;;;;;6119010;23;20418;-65
2022/03/23 11:23:33;;;;;;;7.23;2.63;;;21.00;55.70;;;;;;6119044;23;20425;-66
2022/03/23 11:26:02;;;;;;;4.80;2.57;;;21.20;55.30;;;;;;6118337;23;20402;-67
2022/03/23 11:28:31;;;;;;;5.33;3.53;;;21.30;56.00;;;;;;6118813;23;20879;-66
2022/03/23 11:31:08;;;;;;;5.60;3.13;;;21.50;56.90;;;;;;6119209;23;20892;-67
2022/03/23 11:33:35;;;;;;;7.37;4.17;;;21.70;55.40;;;;;;6095067;23;20402;-66
2022/03/23 11:36:08;;;;;;;4.57;3.10;;;21.80;55.50;;;;;;6119158;23;20402;-67
2022/03/23 11:38:37;;;;;;;4.60;3.43;;;22.00;53.90;;;;;;6118923;23;20400;-67
2022/03/23 11:41:05;;;;;;;2.83;2.60;;;22.20;55.80;;;;;;6118753;23;20422;-66
2022/03/23 11:43:34;;;;;;;4.90;2.73;;;22.30;54.10;;;;;;6119003;23;20428;-65
2022/03/23 11:46:04;;;;;;;6.43;3.50;;;22.40;52.90;;;;;;6118859;23;20734;-66
2022/03/23 11:48:48;;;;;;;5.40;3.63;;;22.50;52.60;;;;;;6118742;23;20435;-66
2022/03/23 11:51:40;;;;;;;7.07;3.27;;;22.50;54.70;;;;;;6117836;23;20421;-66
2022/03/23 11:54:17;;;;;;;4.10;2.27;;;22.70;52.40;;;;;;6118783;23;20874;-66
2022/03/23 11:56:53;;;;;;;4.83;3.00;;;22.90;52.30;;;;;;6118986;23;20405;-66
2022/03/23 11:59:23;;;;;;;9.00;3.87;;;23.00;52.00;;;;;;6118767;23;20428;-66
2022/03/23 12:01:51;;;;;;;6.50;3.20;;;23.30;53.00;;;;;;6092813;23;20414;-66
2022/03/23 12:04:21;;;;;;;5.17;2.93;;;23.30;52.40;;;;;;6118798;23;20401;-66
2022/03/23 12:06:58;;;;;;;5.10;3.50;;;23.40;49.90;;;;;;6118903;23;20455;-67
2022/03/23 12:09:36;;;;;;;4.93;3.57;;;23.60;49.10;;;;;;6119167;23;20789;-67
2022/03/23 12:12:04;;;;;;;6.10;3.20;;;23.70;49.50;;;;;;6119076;23;20413;-66
2022/03/23 12:14:32;;;;;;;6.13;4.30;;;23.90;50.00;;;;;;6119170;23;20731;-67
2022/03/23 12:17:11;;;;;;;4.00;2.70;;;23.80;48.50;;;;;;6118844;23;20460;-66
2022/03/23 12:19:59;;;;;;;5.50;2.63;;;23.90;49.20;;;;;;6118752;23;20469;-67
2022/03/23 12:23:02;;;;;;;7.13;3.17;;;24.00;50.00;;;;;;6119173;23;20409;-67
2022/03/23 12:25:49;;;;;;;3.70;2.57;;;23.80;48.60;;;;;;6098903;23;20476;-67
2022/03/23 12:28:26;;;;;;;5.20;3.47;;;24.00;55.80;;;;;;6119984;23;20424;-67
2022/03/23 12:31:09;;;;;;;7.53;3.13;;;24.30;48.90;;;;;;6119910;23;20496;-67
2022/03/23 12:34:12;;;;;;;8.00;3.77;;;24.40;49.10;;;;;;6120295;23;20406;-66
2022/03/23 12:39:36;;;;;;;4.73;3.47;;;24.80;46.50;;;;;;6106887;23;20950;-66
2022/03/23 12:42:29;;;;;;;5.87;3.30;;;25.00;46.20;;;;;;6119833;23;20410;-67
2022/03/23 12:45:09;;;;;;;6.20;3.47;;;25.30;46.70;;;;;;6119490;23;20903;-67
2022/03/23 12:47:36;;;;;;;7.60;3.37;;;25.20;47.60;;;;;;6119751;23;20415;-67
2022/03/23 12:58:32;;;;;;;6.63;3.30;;;25.80;44.90;;;;;;6119843;23;20485;-64
2022/03/23 13:01:10;;;;;;;6.93;3.67;;;25.80;44.80;;;;;;6119696;23;20430;-66
2022/03/23 13:03:56;;;;;;;9.60;4.73;;;25.90;45.70;;;;;;6119450;23;20402;-66
2022/03/23 13:06:34;;;;;;;8.80;4.07;;;25.80;43.90;;;;;;6119880;23;20421;-66
2022/03/23 13:09:02;;;;;;;8.67;3.77;;;25.80;47.60;;;;;;6119835;23;20421;-67
2022/03/23 13:11:32;;;;;;;6.07;3.53;;;25.90;46.00;;;;;;6119600;23;20406;-66
2022/03/23 13:14:00;;;;;;;7.23;3.40;;;25.90;46.10;;;;;;6119972;23;20407;-66
2022/03/23 13:16:28;;;;;;;6.00;3.27;;;25.90;45.60;;;;;;6119751;23;20451;-67
2022/03/23 13:18:58;;;;;;;11.33;3.63;;;25.90;45.00;;;;;;6119851;23;20401;-66
2022/03/23 13:21:28;;;;;;;6.07;2.97;;;26.10;46.60;;;;;;6119851;23;20414;-66
2022/03/23 13:23:56;;;;;;;6.47;2.90;;;26.40;45.80;;;;;;6119281;23;20410;-66
2022/03/23 13:26:25;;;;;;;4.90;3.10;;;26.30;46.30;;;;;;6119649;23;20417;-66
2022/03/23 13:28:58;;;;;;;6.90;4.33;;;26.10;45.30;;;;;;6119479;23;20467;-66
2022/03/23 13:31:30;;;;;;;9.40;3.90;;;26.10;45.70;;;;;;6119562;23;20479;-66
2022/03/23 13:33:57;;;;;;;8.10;4.17;;;26.00;46.50;;;;;;6120111;23;20398;-66
2022/03/23 13:36:27;;;;;;;6.93;3.63;;;26.20;47.60;;;;;;6119499;23;20425;-66
2022/03/23 13:38:56;;;;;;;7.20;3.10;;;26.20;46.70;;;;;;6119325;23;20876;-66
2022/03/23 13:44:12;;;;;;;9.00;4.13;;;26.50;45.50;;;;;;6097918;23;20404;-67